PWSweather.com
Personal Weather Stations
Station Observations
DEKREUPEL
Wsv De Kreupel, AndijkNL 1619 JV

Wsv De KreupelAndijkNL 1619 JV

Lat: 52.7417364, Lon: 5.1809356

Elevation: 33

Station Type: Rainwise MKiii LR

Latest ConditionsUpdated 3:59:00 PM GMT+01:01 Wednesday, Jun 20, 2018
Currently Today's Max Today's Min Today's Average
Temperature 69.2°F20.7°C 70.2°F21.2°C 64.7°F18.2°C 66.9°F19.4°C
Dew Point 98.2°F36.8°C 99.4°F37.4°C 93.1°F33.9°C 95.6°F35.3°C
Winds 16.4 mph WSW26.4 kmh WSW 21.9 mph -35.2 kmh - - 10.9 mph 17.5 kmh
Wind Gusts 22.1 mph35.6 kmh 26.5 mph42.6 kmh - -
Humidity - - - -
Pressure 30.19 in1022.4 mb 30.29 in1025.7 mb 30.18 in1022.0 mb -
Hour Temp Dew Point Humidity Winds Wind Gusts Pressure Precip Precip Rate Daily Precip Total
03:59 PM 69.2°F20.7°C 98.2°F36.8°C - 16.4 mph WSW26.4 kmh WSW 22.1 mph35.6 kmh 30.19 in1022.4 mb 0.00 in0.0 mm 0.00 in0.0 mm 0.00 in0.0 mm
03:54 PM 69.0°F20.6°C 98.1°F36.7°C - 20.0 mph W32.2 kmh W 23.2 mph37.3 kmh 30.19 in1022.4 mb 0.00 in0.0 mm 0.00 in0.0 mm 0.00 in0.0 mm
03:49 PM 69.0°F20.6°C 98.1°F36.7°C - 18.9 mph W30.4 kmh W 24.2 mph38.9 kmh 30.18 in1022.0 mb 0.00 in0.0 mm 0.00 in0.0 mm 0.00 in0.0 mm
03:44 PM 69.0°F20.6°C 98.1°F36.7°C - 20.2 mph W32.5 kmh W 24.5 mph39.4 kmh 30.19 in1022.4 mb 0.00 in0.0 mm 0.00 in0.0 mm 0.00 in0.0 mm
03:39 PM 69.1°F20.6°C 98.2°F36.8°C - 21.9 mph WSW35.2 kmh WSW 25.9 mph41.7 kmh 30.18 in1022.0 mb 0.00 in0.0 mm 0.00 in0.0 mm 0.00 in0.0 mm
03:34 PM 69.2°F20.7°C 98.2°F36.8°C - 18.1 mph WSW29.1 kmh WSW 22.6 mph36.4 kmh 30.19 in1022.4 mb 0.00 in0.0 mm 0.00 in0.0 mm 0.00 in0.0 mm
03:29 PM 69.4°F20.8°C 98.5°F36.9°C - 19.4 mph WSW31.2 kmh WSW 24.2 mph38.9 kmh 30.18 in1022.0 mb 0.00 in0.0 mm 0.00 in0.0 mm 0.00 in0.0 mm
03:24 PM 69.5°F20.8°C 98.7°F37.1°C - 16.3 mph WSW26.2 kmh WSW 20.4 mph32.8 kmh 30.18 in1022.0 mb 0.00 in0.0 mm 0.00 in0.0 mm 0.00 in0.0 mm
03:19 PM 69.5°F20.8°C 98.5°F36.9°C - 20.4 mph WSW32.8 kmh WSW 25.5 mph41.0 kmh 30.18 in1022.0 mb 0.00 in0.0 mm 0.00 in0.0 mm 0.00 in0.0 mm
03:14 PM 69.6°F20.9°C 98.8°F37.1°C - 13.8 mph WSW22.2 kmh WSW 18.2 mph29.3 kmh 30.18 in1022.0 mb 0.00 in0.0 mm 0.00 in0.0 mm 0.00 in0.0 mm
03:09 PM 69.4°F20.8°C 98.4°F36.9°C - 17.9 mph WSW28.8 kmh WSW 21.5 mph34.6 kmh 30.18 in1022.0 mb 0.00 in0.0 mm 0.00 in0.0 mm 0.00 in0.0 mm
03:04 PM 69.5°F20.8°C 98.7°F37.1°C - 16.8 mph WSW27.0 kmh WSW 20.2 mph32.5 kmh 30.19 in1022.4 mb 0.00 in0.0 mm 0.00 in0.0 mm 0.00 in0.0 mm
02:59 PM 69.5°F20.8°C 98.5°F36.9°C - 16.6 mph W26.7 kmh W 20.8 mph33.5 kmh 30.19 in1022.4 mb 0.00 in0.0 mm 0.00 in0.0 mm 0.00 in0.0 mm
02:54 PM 69.4°F20.8°C 98.5°F36.9°C - 16.8 mph W27.0 kmh W 21.4 mph34.4 kmh 30.19 in1022.4 mb 0.00 in0.0 mm 0.00 in0.0 mm 0.00 in0.0 mm
02:49 PM 69.2°F20.7°C 98.3°F36.8°C - 16.3 mph WSW26.2 kmh WSW 19.2 mph30.9 kmh 30.19 in1022.4 mb 0.00 in0.0 mm 0.00 in0.0 mm 0.00 in0.0 mm
02:44 PM 69.5°F20.8°C 98.5°F36.9°C - 18.1 mph W29.1 kmh W 22.6 mph36.4 kmh 30.19 in1022.4 mb 0.00 in0.0 mm 0.00 in0.0 mm 0.00 in0.0 mm
02:39 PM 69.7°F20.9°C 98.7°F37.1°C - 15.4 mph WSW24.8 kmh WSW 18.5 mph29.8 kmh 30.19 in1022.4 mb 0.00 in0.0 mm 0.00 in0.0 mm 0.00 in0.0 mm
02:34 PM 70.0°F21.1°C 99.2°F37.3°C - 14.7 mph WSW23.7 kmh WSW 18.8 mph30.3 kmh 30.19 in1022.4 mb 0.00 in0.0 mm 0.00 in0.0 mm 0.00 in0.0 mm
02:29 PM 70.2°F21.2°C 99.4°F37.4°C - 13.4 mph WSW21.6 kmh WSW 17.4 mph28.0 kmh 30.19 in1022.4 mb 0.00 in0.0 mm 0.00 in0.0 mm 0.00 in0.0 mm
02:24 PM 70.2°F21.2°C 99.3°F37.4°C - 13.9 mph WSW22.4 kmh WSW 17.8 mph28.6 kmh 30.19 in1022.4 mb 0.00 in0.0 mm 0.00 in0.0 mm 0.00 in0.0 mm
02:19 PM 70.2°F21.2°C 99.4°F37.4°C - 15.0 mph WSW24.1 kmh WSW 20.2 mph32.5 kmh 30.19 in1022.4 mb 0.00 in0.0 mm 0.00 in0.0 mm 0.00 in0.0 mm
02:14 PM 70.0°F21.1°C 99.2°F37.3°C - 14.5 mph WSW23.3 kmh WSW 19.7 mph31.7 kmh 30.19 in1022.4 mb 0.00 in0.0 mm 0.00 in0.0 mm 0.00 in0.0 mm
02:09 PM 70.0°F21.1°C 99.2°F37.3°C - 15.7 mph WSW25.3 kmh WSW 20.4 mph32.8 kmh 30.19 in1022.4 mb 0.00 in0.0 mm 0.00 in0.0 mm 0.00 in0.0 mm
02:04 PM 69.9°F21.1°C 99.0°F37.2°C - 14.5 mph SW23.3 kmh SW 20.2 mph32.5 kmh 30.20 in1022.7 mb 0.00 in0.0 mm 0.00 in0.0 mm 0.00 in0.0 mm
01:59 PM 69.8°F21.0°C 99.0°F37.2°C - 13.4 mph WSW21.6 kmh WSW 16.8 mph27.0 kmh 30.20 in1022.7 mb 0.00 in0.0 mm 0.00 in0.0 mm 0.00 in0.0 mm
01:54 PM 69.7°F20.9°C 98.9°F37.2°C - 10.9 mph SW17.5 kmh SW 15.0 mph24.1 kmh 30.20 in1022.7 mb 0.00 in0.0 mm 0.00 in0.0 mm 0.00 in0.0 mm
01:49 PM 69.7°F20.9°C 98.9°F37.2°C - 12.8 mph WSW20.6 kmh WSW 16.4 mph26.4 kmh 30.20 in1022.7 mb 0.00 in0.0 mm 0.00 in0.0 mm 0.00 in0.0 mm
01:44 PM 69.5°F20.8°C 98.7°F37.1°C - 13.0 mph WSW20.9 kmh WSW 16.8 mph27.0 kmh 30.20 in1022.7 mb 0.00 in0.0 mm 0.00 in0.0 mm 0.00 in0.0 mm
01:39 PM 69.4°F20.8°C 98.5°F36.9°C - 12.4 mph SW20.0 kmh SW 17.9 mph28.8 kmh 30.20 in1022.7 mb 0.00 in0.0 mm 0.00 in0.0 mm 0.00 in0.0 mm
01:34 PM 69.4°F20.8°C 98.5°F36.9°C - 12.8 mph WSW20.6 kmh WSW 17.8 mph28.6 kmh 30.20 in1022.7 mb 0.00 in0.0 mm 0.00 in0.0 mm 0.00 in0.0 mm
01:29 PM 69.2°F20.7°C 98.2°F36.8°C - 14.3 mph WSW23.0 kmh WSW 19.5 mph31.4 kmh 30.21 in1023.0 mb 0.00 in0.0 mm 0.00 in0.0 mm 0.00 in0.0 mm
01:24 PM 69.2°F20.7°C 98.3°F36.8°C - 14.1 mph SW22.7 kmh SW 18.1 mph29.1 kmh 30.21 in1023.0 mb 0.00 in0.0 mm 0.00 in0.0 mm 0.00 in0.0 mm
01:19 PM 69.0°F20.6°C 98.0°F36.7°C - 13.9 mph SW22.4 kmh SW 18.5 mph29.8 kmh 30.21 in1023.0 mb 0.00 in0.0 mm 0.00 in0.0 mm 0.00 in0.0 mm
01:14 PM 69.0°F20.6°C 98.1°F36.7°C - 12.6 mph SW20.3 kmh SW 16.3 mph26.2 kmh 30.21 in1023.0 mb 0.00 in0.0 mm 0.00 in0.0 mm 0.00 in0.0 mm
01:09 PM 69.0°F20.6°C 98.1°F36.7°C - 12.8 mph WSW20.6 kmh WSW 18.1 mph29.1 kmh 30.21 in1023.0 mb 0.00 in0.0 mm 0.00 in0.0 mm 0.00 in0.0 mm
01:04 PM 69.0°F20.6°C 98.1°F36.7°C - 12.8 mph WSW20.6 kmh WSW 16.9 mph27.2 kmh 30.21 in1023.0 mb 0.00 in0.0 mm 0.00 in0.0 mm 0.00 in0.0 mm
12:59 PM 69.0°F20.6°C 98.0°F36.7°C - 13.9 mph WSW22.4 kmh WSW 19.1 mph30.7 kmh 30.21 in1023.0 mb 0.00 in0.0 mm 0.00 in0.0 mm 0.00 in0.0 mm
12:54 PM 68.7°F20.4°C 97.7°F36.5°C - 11.0 mph SW17.7 kmh SW 15.6 mph25.1 kmh 30.21 in1023.0 mb 0.00 in0.0 mm 0.00 in0.0 mm 0.00 in0.0 mm
12:49 PM 68.5°F20.3°C 97.5°F36.4°C - 13.2 mph WSW21.2 kmh WSW 17.5 mph28.2 kmh 30.21 in1023.0 mb 0.00 in0.0 mm 0.00 in0.0 mm 0.00 in0.0 mm
12:44 PM 68.5°F20.3°C 97.4°F36.3°C - 12.8 mph WSW20.6 kmh WSW 16.7 mph26.9 kmh 30.21 in1023.0 mb 0.00 in0.0 mm 0.00 in0.0 mm 0.00 in0.0 mm
12:39 PM 68.5°F20.3°C 97.5°F36.4°C - 12.9 mph WSW20.8 kmh WSW 17.0 mph27.4 kmh 30.22 in1023.4 mb 0.00 in0.0 mm 0.00 in0.0 mm 0.00 in0.0 mm
12:34 PM 68.7°F20.4°C 97.6°F36.4°C - 11.7 mph WSW18.8 kmh WSW 15.8 mph25.4 kmh 30.22 in1023.4 mb 0.00 in0.0 mm 0.00 in0.0 mm 0.00 in0.0 mm
12:29 PM 68.7°F20.4°C 97.6°F36.4°C - 11.6 mph WSW18.7 kmh WSW 15.2 mph24.5 kmh 30.22 in1023.4 mb 0.00 in0.0 mm 0.00 in0.0 mm 0.00 in0.0 mm
12:24 PM 68.5°F20.3°C 97.5°F36.4°C - 10.9 mph WSW17.5 kmh WSW 14.2 mph22.9 kmh 30.22 in1023.4 mb 0.00 in0.0 mm 0.00 in0.0 mm 0.00 in0.0 mm
12:19 PM 68.5°F20.3°C 97.4°F36.3°C - 13.4 mph WSW21.6 kmh WSW 17.0 mph27.4 kmh 30.22 in1023.4 mb 0.00 in0.0 mm 0.00 in0.0 mm 0.00 in0.0 mm
12:14 PM 68.5°F20.3°C 97.5°F36.4°C - 11.3 mph WSW18.2 kmh WSW 15.0 mph24.1 kmh 30.22 in1023.4 mb 0.00 in0.0 mm 0.00 in0.0 mm 0.00 in0.0 mm
12:09 PM 68.3°F20.2°C 97.3°F36.3°C - 12.0 mph WSW19.3 kmh WSW 16.6 mph26.7 kmh 30.23 in1023.7 mb 0.00 in0.0 mm 0.00 in0.0 mm 0.00 in0.0 mm
12:04 PM 68.2°F20.1°C 97.1°F36.2°C - 13.6 mph WSW21.9 kmh WSW 17.3 mph27.8 kmh 30.23 in1023.7 mb 0.00 in0.0 mm 0.00 in0.0 mm 0.00 in0.0 mm
11:59 AM 68.2°F20.1°C 97.2°F36.2°C - 12.2 mph WSW19.6 kmh WSW 16.1 mph25.9 kmh 30.23 in1023.7 mb 0.00 in0.0 mm 0.00 in0.0 mm 0.00 in0.0 mm
11:54 AM 68.1°F20.1°C 96.9°F36.1°C - 10.4 mph WSW16.7 kmh WSW 13.6 mph21.9 kmh 30.24 in1024.0 mb 0.00 in0.0 mm 0.00 in0.0 mm 0.00 in0.0 mm
11:49 AM 68.0°F20.0°C 97.0°F36.1°C - 11.8 mph WSW19.0 kmh WSW 15.4 mph24.8 kmh 30.24 in1024.0 mb 0.00 in0.0 mm 0.00 in0.0 mm 0.00 in0.0 mm
11:44 AM 68.0°F20.0°C 97.0°F36.1°C - 13.3 mph WSW21.4 kmh WSW 17.7 mph28.5 kmh 30.24 in1024.0 mb 0.00 in0.0 mm 0.00 in0.0 mm 0.00 in0.0 mm
11:39 AM 67.9°F19.9°C 96.8°F36.0°C - 11.9 mph WSW19.2 kmh WSW 15.5 mph24.9 kmh 30.24 in1024.0 mb 0.00 in0.0 mm 0.00 in0.0 mm 0.00 in0.0 mm
11:34 AM 67.7°F19.8°C 96.6°F35.9°C - 13.4 mph WSW21.6 kmh WSW 16.2 mph26.1 kmh 30.24 in1024.0 mb 0.00 in0.0 mm 0.00 in0.0 mm 0.00 in0.0 mm
11:29 AM 67.7°F19.8°C 96.6°F35.9°C - 11.2 mph WSW18.0 kmh WSW 14.6 mph23.5 kmh 30.24 in1024.0 mb 0.00 in0.0 mm 0.00 in0.0 mm 0.00 in0.0 mm
11:24 AM 67.8°F19.9°C 96.7°F35.9°C - 14.0 mph WSW22.5 kmh WSW 17.9 mph28.8 kmh 30.24 in1024.0 mb 0.00 in0.0 mm 0.00 in0.0 mm 0.00 in0.0 mm
11:19 AM 67.8°F19.9°C 96.6°F35.9°C - 13.4 mph WSW21.6 kmh WSW 17.2 mph27.7 kmh 30.24 in1024.0 mb 0.00 in0.0 mm 0.00 in0.0 mm 0.00 in0.0 mm
11:14 AM 67.7°F19.8°C 96.6°F35.9°C - 10.8 mph WSW17.4 kmh WSW 14.6 mph23.5 kmh 30.24 in1024.0 mb 0.00 in0.0 mm 0.00 in0.0 mm 0.00 in0.0 mm
11:09 AM 67.7°F19.8°C 96.6°F35.9°C - 14.5 mph WSW23.3 kmh WSW 19.6 mph31.5 kmh 30.24 in1024.0 mb 0.00 in0.0 mm 0.00 in0.0 mm 0.00 in0.0 mm
11:04 AM 67.7°F19.8°C 96.6°F35.9°C - 17.3 mph WSW27.8 kmh WSW 26.5 mph42.6 kmh 30.25 in1024.4 mb 0.00 in0.0 mm 0.00 in0.0 mm 0.00 in0.0 mm
10:59 AM 67.7°F19.8°C 96.5°F35.8°C - 11.7 mph WSW18.8 kmh WSW 18.3 mph29.5 kmh 30.24 in1024.0 mb 0.00 in0.0 mm 0.00 in0.0 mm 0.00 in0.0 mm
10:54 AM 67.9°F19.9°C 96.8°F36.0°C - 12.2 mph WSW19.6 kmh WSW 17.3 mph27.8 kmh 30.25 in1024.4 mb 0.00 in0.0 mm 0.00 in0.0 mm 0.00 in0.0 mm
10:49 AM 67.9°F19.9°C 96.8°F36.0°C - 10.6 mph WSW17.1 kmh WSW 15.2 mph24.5 kmh 30.24 in1024.0 mb 0.00 in0.0 mm 0.00 in0.0 mm 0.00 in0.0 mm
10:44 AM 67.9°F19.9°C 96.7°F35.9°C - 12.0 mph WSW19.3 kmh WSW 15.4 mph24.8 kmh 30.24 in1024.0 mb 0.00 in0.0 mm 0.00 in0.0 mm 0.00 in0.0 mm
10:39 AM 67.9°F19.9°C 96.8°F36.0°C - 11.1 mph WSW17.9 kmh WSW 18.6 mph29.9 kmh 30.25 in1024.4 mb 0.00 in0.0 mm 0.00 in0.0 mm 0.00 in0.0 mm
10:34 AM 67.9°F19.9°C 96.7°F35.9°C - 8.0 mph WSW12.9 kmh WSW 11.7 mph18.8 kmh 30.25 in1024.4 mb 0.00 in0.0 mm 0.00 in0.0 mm 0.00 in0.0 mm
10:29 AM 67.9°F19.9°C 96.8°F36.0°C - 9.6 mph WSW15.4 kmh WSW 13.0 mph20.9 kmh 30.24 in1024.0 mb 0.00 in0.0 mm 0.00 in0.0 mm 0.00 in0.0 mm
10:24 AM 67.7°F19.8°C 96.6°F35.9°C - 11.1 mph WSW17.9 kmh WSW 15.3 mph24.6 kmh 30.24 in1024.0 mb 0.00 in0.0 mm 0.00 in0.0 mm 0.00 in0.0 mm
10:19 AM 67.7°F19.8°C 96.5°F35.8°C - 11.1 mph SW17.9 kmh SW 16.2 mph26.1 kmh 30.24 in1024.0 mb 0.00 in0.0 mm 0.00 in0.0 mm 0.00 in0.0 mm
10:14 AM 67.7°F19.8°C 96.5°F35.8°C - 11.2 mph SW18.0 kmh SW 15.5 mph24.9 kmh 30.24 in1024.0 mb 0.00 in0.0 mm 0.00 in0.0 mm 0.00 in0.0 mm
10:09 AM 67.9°F19.9°C 96.8°F36.0°C - 10.8 mph SW17.4 kmh SW 16.1 mph25.9 kmh 30.24 in1024.0 mb 0.00 in0.0 mm 0.00 in0.0 mm 0.00 in0.0 mm
10:04 AM 67.7°F19.8°C 96.6°F35.9°C - 11.2 mph SW18.0 kmh SW 15.8 mph25.4 kmh 30.24 in1024.0 mb 0.00 in0.0 mm 0.00 in0.0 mm 0.00 in0.0 mm
09:59 AM 67.6°F19.8°C 96.5°F35.8°C - 11.0 mph SW17.7 kmh SW 15.6 mph25.1 kmh 30.24 in1024.0 mb 0.00 in0.0 mm 0.00 in0.0 mm 0.00 in0.0 mm
09:54 AM 67.5°F19.7°C 96.4°F35.8°C - 11.8 mph SW19.0 kmh SW 15.7 mph25.3 kmh 30.24 in1024.0 mb 0.00 in0.0 mm 0.00 in0.0 mm 0.00 in0.0 mm
09:49 AM 67.7°F19.8°C 96.6°F35.9°C - 11.4 mph SW18.3 kmh SW 16.4 mph26.4 kmh 30.24 in1024.0 mb 0.00 in0.0 mm 0.00 in0.0 mm 0.00 in0.0 mm
09:44 AM 67.7°F19.8°C 96.5°F35.8°C - 8.7 mph WSW14.0 kmh WSW 11.7 mph18.8 kmh 30.24 in1024.0 mb 0.00 in0.0 mm 0.00 in0.0 mm 0.00 in0.0 mm
09:39 AM 67.5°F19.7°C 96.4°F35.8°C - 9.3 mph WSW15.0 kmh WSW 12.7 mph20.4 kmh 30.24 in1024.0 mb 0.00 in0.0 mm 0.00 in0.0 mm 0.00 in0.0 mm
09:34 AM 67.5°F19.7°C 96.3°F35.7°C - 10.6 mph SW17.1 kmh SW 14.5 mph23.3 kmh 30.24 in1024.0 mb 0.00 in0.0 mm 0.00 in0.0 mm 0.00 in0.0 mm
09:29 AM 67.4°F19.7°C 96.3°F35.7°C - 10.5 mph SW16.9 kmh SW 14.7 mph23.7 kmh 30.24 in1024.0 mb 0.00 in0.0 mm 0.00 in0.0 mm 0.00 in0.0 mm
09:24 AM 67.2°F19.6°C 96.1°F35.6°C - 12.2 mph WSW19.6 kmh WSW 16.2 mph26.1 kmh 30.25 in1024.4 mb 0.00 in0.0 mm 0.00 in0.0 mm 0.00 in0.0 mm
09:19 AM 67.2°F19.6°C 96.1°F35.6°C - 11.1 mph SW17.9 kmh SW 15.1 mph24.3 kmh 30.25 in1024.4 mb 0.00 in0.0 mm 0.00 in0.0 mm 0.00 in0.0 mm
09:14 AM 67.0°F19.4°C 95.8°F35.4°C - 10.2 mph SW16.4 kmh SW 13.4 mph21.6 kmh 30.25 in1024.4 mb 0.00 in0.0 mm 0.00 in0.0 mm 0.00 in0.0 mm
09:09 AM 67.0°F19.4°C 95.8°F35.4°C - 11.6 mph WSW18.7 kmh WSW 14.9 mph24.0 kmh 30.25 in1024.4 mb 0.00 in0.0 mm 0.00 in0.0 mm 0.00 in0.0 mm
09:04 AM 67.0°F19.4°C 95.7°F35.4°C - 11.0 mph WSW17.7 kmh WSW 14.7 mph23.7 kmh 30.25 in1024.4 mb 0.00 in0.0 mm 0.00 in0.0 mm 0.00 in0.0 mm
08:59 AM 67.0°F19.4°C 95.8°F35.4°C - 13.2 mph WSW21.2 kmh WSW 16.7 mph26.9 kmh 30.25 in1024.4 mb 0.00 in0.0 mm 0.00 in0.0 mm 0.00 in0.0 mm
08:54 AM 66.9°F19.4°C 95.7°F35.4°C - 10.8 mph WSW17.4 kmh WSW 14.0 mph22.5 kmh 30.25 in1024.4 mb 0.00 in0.0 mm 0.00 in0.0 mm 0.00 in0.0 mm
08:49 AM 66.9°F19.4°C 95.7°F35.4°C - 12.3 mph WSW19.8 kmh WSW 16.4 mph26.4 kmh 30.25 in1024.4 mb 0.00 in0.0 mm 0.00 in0.0 mm 0.00 in0.0 mm
08:44 AM 66.7°F19.3°C 95.5°F35.3°C - 11.2 mph WSW18.0 kmh WSW 14.0 mph22.5 kmh 30.25 in1024.4 mb 0.00 in0.0 mm 0.00 in0.0 mm 0.00 in0.0 mm
08:39 AM 66.7°F19.3°C 95.4°F35.2°C - 11.0 mph SW17.7 kmh SW 14.8 mph23.8 kmh 30.25 in1024.4 mb 0.00 in0.0 mm 0.00 in0.0 mm 0.00 in0.0 mm
08:34 AM 66.5°F19.2°C 95.3°F35.2°C - 9.9 mph WSW15.9 kmh WSW 13.2 mph21.2 kmh 30.25 in1024.4 mb 0.00 in0.0 mm 0.00 in0.0 mm 0.00 in0.0 mm
08:29 AM 66.5°F19.2°C 95.3°F35.2°C - 11.1 mph SW17.9 kmh SW 15.7 mph25.3 kmh 30.25 in1024.4 mb 0.00 in0.0 mm 0.00 in0.0 mm 0.00 in0.0 mm
08:24 AM 66.5°F19.2°C 95.3°F35.2°C - 11.0 mph SW17.7 kmh SW 13.3 mph21.4 kmh 30.25 in1024.4 mb 0.00 in0.0 mm 0.00 in0.0 mm 0.00 in0.0 mm
08:19 AM 66.7°F19.3°C 95.5°F35.3°C - 11.6 mph WSW18.7 kmh WSW 15.9 mph25.6 kmh 30.25 in1024.4 mb 0.00 in0.0 mm 0.00 in0.0 mm 0.00 in0.0 mm
08:14 AM 66.7°F19.3°C 95.5°F35.3°C - 10.4 mph SW16.7 kmh SW 13.5 mph21.7 kmh 30.25 in1024.4 mb 0.00 in0.0 mm 0.00 in0.0 mm 0.00 in0.0 mm
08:09 AM 66.5°F19.2°C 95.1°F35.1°C - 11.6 mph WSW18.7 kmh WSW 13.8 mph22.2 kmh 30.25 in1024.4 mb 0.00 in0.0 mm 0.00 in0.0 mm 0.00 in0.0 mm
08:04 AM 66.7°F19.3°C 95.5°F35.3°C - 12.8 mph WSW20.6 kmh WSW 15.3 mph24.6 kmh 30.25 in1024.4 mb 0.00 in0.0 mm 0.00 in0.0 mm 0.00 in0.0 mm
07:59 AM 66.7°F19.3°C 95.4°F35.2°C - 12.2 mph WSW19.6 kmh WSW 15.5 mph24.9 kmh 30.25 in1024.4 mb 0.00 in0.0 mm 0.00 in0.0 mm 0.00 in0.0 mm
07:54 AM 66.7°F19.3°C 95.5°F35.3°C - 11.0 mph WSW17.7 kmh WSW 13.6 mph21.9 kmh 30.25 in1024.4 mb 0.00 in0.0 mm 0.00 in0.0 mm 0.00 in0.0 mm
07:49 AM 66.7°F19.3°C 95.5°F35.3°C - 9.8 mph WSW15.8 kmh WSW 13.0 mph20.9 kmh 30.25 in1024.4 mb 0.00 in0.0 mm 0.00 in0.0 mm 0.00 in0.0 mm
07:44 AM 66.7°F19.3°C 95.4°F35.2°C - 10.1 mph WSW16.3 kmh WSW 13.5 mph21.7 kmh 30.25 in1024.4 mb 0.00 in0.0 mm 0.00 in0.0 mm 0.00 in0.0 mm
07:39 AM 66.5°F19.2°C 95.1°F35.1°C - 9.5 mph WSW15.3 kmh WSW 12.4 mph20.0 kmh 30.25 in1024.4 mb 0.00 in0.0 mm 0.00 in0.0 mm 0.00 in0.0 mm
07:34 AM 66.2°F19.0°C 94.9°F34.9°C - 8.7 mph WSW14.0 kmh WSW 11.6 mph18.7 kmh 30.25 in1024.4 mb 0.00 in0.0 mm 0.00 in0.0 mm 0.00 in0.0 mm
07:29 AM 66.2°F19.0°C 94.8°F34.9°C - 9.4 mph SW15.1 kmh SW 12.5 mph20.1 kmh 30.25 in1024.4 mb 0.00 in0.0 mm 0.00 in0.0 mm 0.00 in0.0 mm
07:24 AM 66.2°F19.0°C 94.9°F34.9°C - 10.5 mph SW16.9 kmh SW 14.5 mph23.3 kmh 30.25 in1024.4 mb 0.00 in0.0 mm 0.00 in0.0 mm 0.00 in0.0 mm
07:19 AM 66.0°F18.9°C 94.7°F34.8°C - 10.0 mph WSW16.1 kmh WSW 12.9 mph20.8 kmh 30.25 in1024.4 mb 0.00 in0.0 mm 0.00 in0.0 mm 0.00 in0.0 mm
07:14 AM 66.0°F18.9°C 94.7°F34.8°C - 11.1 mph SW17.9 kmh SW 15.9 mph25.6 kmh 30.25 in1024.4 mb 0.00 in0.0 mm 0.00 in0.0 mm 0.00 in0.0 mm
07:09 AM 65.9°F18.8°C 94.6°F34.8°C - 9.5 mph WSW15.3 kmh WSW 13.0 mph20.9 kmh 30.25 in1024.4 mb 0.00 in0.0 mm 0.00 in0.0 mm 0.00 in0.0 mm
07:04 AM 65.7°F18.7°C 94.4°F34.7°C - 11.2 mph WSW18.0 kmh WSW 15.4 mph24.8 kmh 30.25 in1024.4 mb 0.00 in0.0 mm 0.00 in0.0 mm 0.00 in0.0 mm
06:59 AM 65.7°F18.7°C 94.4°F34.7°C - 9.5 mph SW15.3 kmh SW 13.1 mph21.1 kmh 30.24 in1024.0 mb 0.00 in0.0 mm 0.00 in0.0 mm 0.00 in0.0 mm
06:54 AM 65.7°F18.7°C 94.4°F34.7°C - 9.1 mph SW14.6 kmh SW 13.0 mph20.9 kmh 30.25 in1024.4 mb 0.00 in0.0 mm 0.00 in0.0 mm 0.00 in0.0 mm
06:49 AM 65.7°F18.7°C 94.4°F34.7°C - 9.7 mph WSW15.6 kmh WSW 12.8 mph20.6 kmh 30.25 in1024.4 mb 0.00 in0.0 mm 0.00 in0.0 mm 0.00 in0.0 mm
06:44 AM 65.5°F18.6°C 94.1°F34.5°C - 8.5 mph SW13.7 kmh SW 11.5 mph18.5 kmh 30.25 in1024.4 mb 0.00 in0.0 mm 0.00 in0.0 mm 0.00 in0.0 mm
06:39 AM 65.5°F18.6°C 94.1°F34.5°C - 10.9 mph WSW17.5 kmh WSW 13.8 mph22.2 kmh 30.25 in1024.4 mb 0.00 in0.0 mm 0.00 in0.0 mm 0.00 in0.0 mm
06:34 AM 65.5°F18.6°C 94.1°F34.5°C - 10.1 mph WSW16.3 kmh WSW 12.5 mph20.1 kmh 30.24 in1024.0 mb 0.00 in0.0 mm 0.00 in0.0 mm 0.00 in0.0 mm
06:29 AM 65.5°F18.6°C 94.1°F34.5°C - 9.0 mph WSW14.5 kmh WSW 12.5 mph20.1 kmh 30.25 in1024.4 mb 0.00 in0.0 mm 0.00 in0.0 mm 0.00 in0.0 mm
06:24 AM 65.5°F18.6°C 94.0°F34.4°C - 10.6 mph SW17.1 kmh SW 13.7 mph22.0 kmh 30.25 in1024.4 mb 0.00 in0.0 mm 0.00 in0.0 mm 0.00 in0.0 mm
06:19 AM 65.5°F18.6°C 94.1°F34.5°C - 10.0 mph WSW16.1 kmh WSW 13.8 mph22.2 kmh 30.25 in1024.4 mb 0.00 in0.0 mm 0.00 in0.0 mm 0.00 in0.0 mm
06:14 AM 65.5°F18.6°C 94.1°F34.5°C - 10.2 mph WSW16.4 kmh WSW 13.5 mph21.7 kmh 30.25 in1024.4 mb 0.00 in0.0 mm 0.00 in0.0 mm 0.00 in0.0 mm
06:09 AM 65.7°F18.7°C 94.4°F34.7°C - 10.4 mph WSW16.7 kmh WSW 12.7 mph20.4 kmh 30.25 in1024.4 mb 0.00 in0.0 mm 0.00 in0.0 mm 0.00 in0.0 mm
06:04 AM 65.9°F18.8°C 94.5°F34.7°C - 11.5 mph WSW18.5 kmh WSW 14.5 mph23.3 kmh 30.25 in1024.4 mb 0.00 in0.0 mm 0.00 in0.0 mm 0.00 in0.0 mm
05:59 AM 66.0°F18.9°C 94.7°F34.8°C - 8.9 mph WSW14.3 kmh WSW 11.6 mph18.7 kmh 30.25 in1024.4 mb 0.00 in0.0 mm 0.00 in0.0 mm 0.00 in0.0 mm
05:54 AM 66.0°F18.9°C 94.6°F34.8°C - 9.2 mph WSW14.8 kmh WSW 12.4 mph20.0 kmh 30.25 in1024.4 mb 0.00 in0.0 mm 0.00 in0.0 mm 0.00 in0.0 mm
05:49 AM 66.0°F18.9°C 94.7°F34.8°C - 8.7 mph WSW14.0 kmh WSW 11.6 mph18.7 kmh 30.25 in1024.4 mb 0.00 in0.0 mm 0.00 in0.0 mm 0.00 in0.0 mm
05:44 AM 66.0°F18.9°C 94.7°F34.8°C - 8.2 mph WSW13.2 kmh WSW 11.0 mph17.7 kmh 30.25 in1024.4 mb 0.00 in0.0 mm 0.00 in0.0 mm 0.00 in0.0 mm
05:39 AM 65.8°F18.8°C 94.5°F34.7°C - 7.8 mph WSW12.6 kmh WSW 10.0 mph16.1 kmh 30.25 in1024.4 mb 0.00 in0.0 mm 0.00 in0.0 mm 0.00 in0.0 mm
05:34 AM 65.7°F18.7°C 94.4°F34.7°C - 7.3 mph WSW11.7 kmh WSW 10.4 mph16.7 kmh 30.25 in1024.4 mb 0.00 in0.0 mm 0.00 in0.0 mm 0.00 in0.0 mm
05:29 AM 65.5°F18.6°C 94.1°F34.5°C - 8.3 mph SW13.4 kmh SW 11.1 mph17.9 kmh 30.25 in1024.4 mb 0.00 in0.0 mm 0.00 in0.0 mm 0.00 in0.0 mm
05:24 AM 65.4°F18.6°C 94.0°F34.4°C - 9.3 mph WSW15.0 kmh WSW 12.6 mph20.3 kmh 30.25 in1024.4 mb 0.00 in0.0 mm 0.00 in0.0 mm 0.00 in0.0 mm
05:19 AM 65.2°F18.4°C 93.8°F34.3°C - 6.8 mph WSW10.9 kmh WSW 8.9 mph14.3 kmh 30.25 in1024.4 mb 0.00 in0.0 mm 0.00 in0.0 mm 0.00 in0.0 mm
05:14 AM 65.2°F18.4°C 93.8°F34.3°C - 8.0 mph SW12.9 kmh SW 10.1 mph16.3 kmh 30.25 in1024.4 mb 0.00 in0.0 mm 0.00 in0.0 mm 0.00 in0.0 mm
05:09 AM 65.2°F18.4°C 93.8°F34.3°C - 6.7 mph SW10.8 kmh SW 9.0 mph14.5 kmh 30.25 in1024.4 mb 0.00 in0.0 mm 0.00 in0.0 mm 0.00 in0.0 mm
05:04 AM 65.2°F18.4°C 93.8°F34.3°C - 6.8 mph SW10.9 kmh SW 10.2 mph16.4 kmh 30.25 in1024.4 mb 0.00 in0.0 mm 0.00 in0.0 mm 0.00 in0.0 mm
04:59 AM 65.2°F18.4°C 93.8°F34.3°C - 8.5 mph SW13.7 kmh SW 12.1 mph19.5 kmh 30.25 in1024.4 mb 0.00 in0.0 mm 0.00 in0.0 mm 0.00 in0.0 mm
04:54 AM 65.2°F18.4°C 93.8°F34.3°C - 10.4 mph SW16.7 kmh SW 13.7 mph22.0 kmh 30.26 in1024.7 mb 0.00 in0.0 mm 0.00 in0.0 mm 0.00 in0.0 mm
04:49 AM 65.3°F18.5°C 93.8°F34.3°C - 9.7 mph SW15.6 kmh SW 13.1 mph21.1 kmh 30.25 in1024.4 mb 0.00 in0.0 mm 0.00 in0.0 mm 0.00 in0.0 mm
04:44 AM 65.3°F18.5°C 93.9°F34.4°C - 8.9 mph SW14.3 kmh SW 13.1 mph21.1 kmh 30.25 in1024.4 mb 0.00 in0.0 mm 0.00 in0.0 mm 0.00 in0.0 mm
04:39 AM 65.3°F18.5°C 93.8°F34.3°C - 9.1 mph SW14.6 kmh SW 13.3 mph21.4 kmh 30.25 in1024.4 mb 0.00 in0.0 mm 0.00 in0.0 mm 0.00 in0.0 mm
04:34 AM 65.4°F18.6°C 94.0°F34.4°C - 8.7 mph SW14.0 kmh SW 12.4 mph20.0 kmh 30.26 in1024.7 mb 0.00 in0.0 mm 0.00 in0.0 mm 0.00 in0.0 mm
04:29 AM 65.4°F18.6°C 94.0°F34.4°C - 7.7 mph SW12.4 kmh SW 10.5 mph16.9 kmh 30.26 in1024.7 mb 0.00 in0.0 mm 0.00 in0.0 mm 0.00 in0.0 mm
04:24 AM 65.4°F18.6°C 94.0°F34.4°C - 8.2 mph SW13.2 kmh SW 12.0 mph19.3 kmh 30.26 in1024.7 mb 0.00 in0.0 mm 0.00 in0.0 mm 0.00 in0.0 mm
04:19 AM 65.4°F18.6°C 94.0°F34.4°C - 8.0 mph SW12.9 kmh SW 10.6 mph17.1 kmh 30.26 in1024.7 mb 0.00 in0.0 mm 0.00 in0.0 mm 0.00 in0.0 mm
04:14 AM 65.5°F18.6°C 94.1°F34.5°C - 8.2 mph SW13.2 kmh SW 11.4 mph18.3 kmh 30.26 in1024.7 mb 0.00 in0.0 mm 0.00 in0.0 mm 0.00 in0.0 mm
04:09 AM 65.6°F18.7°C 94.3°F34.6°C - 8.2 mph SW13.2 kmh SW 11.5 mph18.5 kmh 30.26 in1024.7 mb 0.00 in0.0 mm 0.00 in0.0 mm 0.00 in0.0 mm
04:04 AM 65.5°F18.6°C 94.1°F34.5°C - 8.3 mph SW13.4 kmh SW 11.8 mph19.0 kmh 30.26 in1024.7 mb 0.00 in0.0 mm 0.00 in0.0 mm 0.00 in0.0 mm
03:59 AM 65.5°F18.6°C 94.1°F34.5°C - 8.1 mph WSW13.0 kmh WSW 10.9 mph17.5 kmh 30.26 in1024.7 mb 0.00 in0.0 mm 0.00 in0.0 mm 0.00 in0.0 mm
03:54 AM 65.5°F18.6°C 94.1°F34.5°C - 8.2 mph SW13.2 kmh SW 11.6 mph18.7 kmh 30.26 in1024.7 mb 0.00 in0.0 mm 0.00 in0.0 mm 0.00 in0.0 mm
03:49 AM 65.5°F18.6°C 94.1°F34.5°C - 7.1 mph SW11.4 kmh SW 9.3 mph15.0 kmh 30.26 in1024.7 mb 0.00 in0.0 mm 0.00 in0.0 mm 0.00 in0.0 mm
03:44 AM 65.4°F18.6°C 93.9°F34.4°C - 6.8 mph SW10.9 kmh SW 8.9 mph14.3 kmh 30.26 in1024.7 mb 0.00 in0.0 mm 0.00 in0.0 mm 0.00 in0.0 mm
03:39 AM 65.4°F18.6°C 94.0°F34.4°C - 8.5 mph SW13.7 kmh SW 11.7 mph18.8 kmh 30.26 in1024.7 mb 0.00 in0.0 mm 0.00 in0.0 mm 0.00 in0.0 mm
03:34 AM 65.4°F18.6°C 94.0°F34.4°C - 7.6 mph SW12.2 kmh SW 10.2 mph16.4 kmh 30.27 in1025.1 mb 0.00 in0.0 mm 0.00 in0.0 mm 0.00 in0.0 mm
03:29 AM 65.2°F18.4°C 93.7°F34.3°C - 6.7 mph SW10.8 kmh SW 9.0 mph14.5 kmh 30.27 in1025.1 mb 0.00 in0.0 mm 0.00 in0.0 mm 0.00 in0.0 mm
03:24 AM 65.2°F18.4°C 93.8°F34.3°C - 8.0 mph SW12.9 kmh SW 11.0 mph17.7 kmh 30.27 in1025.1 mb 0.00 in0.0 mm 0.00 in0.0 mm 0.00 in0.0 mm
03:19 AM 65.2°F18.4°C 93.8°F34.3°C - 7.4 mph SW11.9 kmh SW 9.7 mph15.6 kmh 30.27 in1025.1 mb 0.00 in0.0 mm 0.00 in0.0 mm 0.00 in0.0 mm
03:14 AM 65.2°F18.4°C 93.8°F34.3°C - 7.5 mph SW12.1 kmh SW 10.7 mph17.2 kmh 30.27 in1025.1 mb 0.00 in0.0 mm 0.00 in0.0 mm 0.00 in0.0 mm
03:09 AM 65.0°F18.3°C 93.6°F34.2°C - 7.7 mph SW12.4 kmh SW 11.1 mph17.9 kmh 30.27 in1025.1 mb 0.00 in0.0 mm 0.00 in0.0 mm 0.00 in0.0 mm
03:04 AM 65.0°F18.3°C 93.4°F34.1°C - 7.8 mph SW12.6 kmh SW 10.2 mph16.4 kmh 30.27 in1025.1 mb 0.00 in0.0 mm 0.00 in0.0 mm 0.00 in0.0 mm
02:59 AM 65.0°F18.3°C 93.6°F34.2°C - 7.3 mph SW11.7 kmh SW 11.7 mph18.8 kmh 30.27 in1025.1 mb 0.00 in0.0 mm 0.00 in0.0 mm 0.00 in0.0 mm
02:54 AM 65.0°F18.3°C 93.6°F34.2°C - 8.5 mph SW13.7 kmh SW 11.2 mph18.0 kmh 30.27 in1025.1 mb 0.00 in0.0 mm 0.00 in0.0 mm 0.00 in0.0 mm
02:49 AM 65.0°F18.3°C 93.4°F34.1°C - 8.1 mph SW13.0 kmh SW 11.0 mph17.7 kmh 30.27 in1025.1 mb 0.00 in0.0 mm 0.00 in0.0 mm 0.00 in0.0 mm
02:44 AM 65.0°F18.3°C 93.6°F34.2°C - 7.4 mph SW11.9 kmh SW 10.5 mph16.9 kmh 30.27 in1025.1 mb 0.00 in0.0 mm 0.00 in0.0 mm 0.00 in0.0 mm
02:39 AM 65.0°F18.3°C 93.6°F34.2°C - 8.0 mph SW12.9 kmh SW 10.7 mph17.2 kmh 30.27 in1025.1 mb 0.00 in0.0 mm 0.00 in0.0 mm 0.00 in0.0 mm
02:34 AM 65.0°F18.3°C 93.6°F34.2°C - 7.1 mph WSW11.4 kmh WSW 8.8 mph14.2 kmh 30.27 in1025.1 mb 0.00 in0.0 mm 0.00 in0.0 mm 0.00 in0.0 mm
02:29 AM 65.0°F18.3°C 93.6°F34.2°C - 6.1 mph SW9.8 kmh SW 8.0 mph12.9 kmh 30.27 in1025.1 mb 0.00 in0.0 mm 0.00 in0.0 mm 0.00 in0.0 mm
02:24 AM 65.2°F18.4°C 93.8°F34.3°C - 6.7 mph SW10.8 kmh SW 9.0 mph14.5 kmh 30.27 in1025.1 mb 0.00 in0.0 mm 0.00 in0.0 mm 0.00 in0.0 mm
02:19 AM 65.2°F18.4°C 93.7°F34.3°C - 7.5 mph WSW12.1 kmh WSW 10.3 mph16.6 kmh 30.27 in1025.1 mb 0.00 in0.0 mm 0.00 in0.0 mm 0.00 in0.0 mm
02:14 AM 65.2°F18.4°C 93.7°F34.3°C - 6.8 mph SW10.9 kmh SW 9.5 mph15.3 kmh 30.27 in1025.1 mb 0.00 in0.0 mm 0.00 in0.0 mm 0.00 in0.0 mm
02:09 AM 65.2°F18.4°C 93.8°F34.3°C - 7.3 mph SW11.7 kmh SW 9.4 mph15.1 kmh 30.27 in1025.1 mb 0.00 in0.0 mm 0.00 in0.0 mm 0.00 in0.0 mm
02:04 AM 65.2°F18.4°C 93.8°F34.3°C - 7.8 mph SW12.6 kmh SW 9.8 mph15.8 kmh 30.27 in1025.1 mb 0.00 in0.0 mm 0.00 in0.0 mm 0.00 in0.0 mm
01:59 AM 65.2°F18.4°C 93.8°F34.3°C - 8.1 mph SW13.0 kmh SW 10.7 mph17.2 kmh 30.28 in1025.4 mb 0.00 in0.0 mm 0.00 in0.0 mm 0.00 in0.0 mm
01:54 AM 65.2°F18.4°C 93.8°F34.3°C - 7.0 mph WSW11.3 kmh WSW 9.7 mph15.6 kmh 30.28 in1025.4 mb 0.00 in0.0 mm 0.00 in0.0 mm 0.00 in0.0 mm
01:49 AM 65.2°F18.4°C 93.8°F34.3°C - 7.5 mph SW12.1 kmh SW 9.7 mph15.6 kmh 30.28 in1025.4 mb 0.00 in0.0 mm 0.00 in0.0 mm 0.00 in0.0 mm
01:44 AM 65.1°F18.4°C 93.6°F34.2°C - 8.3 mph WSW13.4 kmh WSW 10.5 mph16.9 kmh 30.28 in1025.4 mb 0.00 in0.0 mm 0.00 in0.0 mm 0.00 in0.0 mm
01:39 AM 65.0°F18.3°C 93.4°F34.1°C - 8.3 mph WSW13.4 kmh WSW 11.0 mph17.7 kmh 30.28 in1025.4 mb 0.00 in0.0 mm 0.00 in0.0 mm 0.00 in0.0 mm
01:34 AM 65.0°F18.3°C 93.6°F34.2°C - 8.9 mph WSW14.3 kmh WSW 12.1 mph19.5 kmh 30.28 in1025.4 mb 0.00 in0.0 mm 0.00 in0.0 mm 0.00 in0.0 mm
01:29 AM 65.0°F18.3°C 93.6°F34.2°C - 9.4 mph WSW15.1 kmh WSW 12.5 mph20.1 kmh 30.28 in1025.4 mb 0.00 in0.0 mm 0.00 in0.0 mm 0.00 in0.0 mm
01:24 AM 64.9°F18.3°C 93.5°F34.2°C - 8.5 mph WSW13.7 kmh WSW 12.6 mph20.3 kmh 30.28 in1025.4 mb 0.00 in0.0 mm 0.00 in0.0 mm 0.00 in0.0 mm
01:19 AM 64.7°F18.2°C 93.2°F34.0°C - 8.8 mph SW14.2 kmh SW 12.7 mph20.4 kmh 30.29 in1025.7 mb 0.00 in0.0 mm 0.00 in0.0 mm 0.00 in0.0 mm
01:14 AM 64.7°F18.2°C 93.2°F34.0°C - 7.6 mph WSW12.2 kmh WSW 10.3 mph16.6 kmh 30.29 in1025.7 mb 0.00 in0.0 mm 0.00 in0.0 mm 0.00 in0.0 mm
01:09 AM 64.7°F18.2°C 93.1°F33.9°C - 8.1 mph SW13.0 kmh SW 10.6 mph17.1 kmh 30.29 in1025.7 mb 0.00 in0.0 mm 0.00 in0.0 mm 0.00 in0.0 mm
01:04 AM 64.7°F18.2°C 93.2°F34.0°C - 8.0 mph SW12.9 kmh SW 10.9 mph17.5 kmh 30.29 in1025.7 mb 0.00 in0.0 mm 0.00 in0.0 mm 0.00 in0.0 mm
12:59 AM 64.8°F18.2°C 93.3°F34.1°C - 8.1 mph WSW13.0 kmh WSW 10.6 mph17.1 kmh 30.29 in1025.7 mb 0.00 in0.0 mm 0.00 in0.0 mm 0.00 in0.0 mm
12:54 AM 64.9°F18.3°C 93.3°F34.1°C - 8.8 mph SW14.2 kmh SW 11.5 mph18.5 kmh 30.29 in1025.7 mb 0.00 in0.0 mm 0.00 in0.0 mm 0.00 in0.0 mm
12:49 AM 64.9°F18.3°C 93.3°F34.1°C - 7.6 mph WSW12.2 kmh WSW 9.7 mph15.6 kmh 30.29 in1025.7 mb 0.00 in0.0 mm 0.00 in0.0 mm 0.00 in0.0 mm
12:44 AM 64.9°F18.3°C 93.5°F34.2°C - 8.7 mph WSW14.0 kmh WSW 11.3 mph18.2 kmh 30.29 in1025.7 mb 0.00 in0.0 mm 0.00 in0.0 mm 0.00 in0.0 mm
12:39 AM 65.0°F18.3°C 93.4°F34.1°C - 8.3 mph WSW13.4 kmh WSW 11.1 mph17.9 kmh 30.29 in1025.7 mb 0.00 in0.0 mm 0.00 in0.0 mm 0.00 in0.0 mm
12:34 AM 65.0°F18.3°C 93.6°F34.2°C - 8.9 mph WSW14.3 kmh WSW 11.7 mph18.8 kmh 30.29 in1025.7 mb 0.00 in0.0 mm 0.00 in0.0 mm 0.00 in0.0 mm
12:29 AM 65.2°F18.4°C 93.7°F34.3°C - 9.0 mph WSW14.5 kmh WSW 11.5 mph18.5 kmh 30.29 in1025.7 mb 0.00 in0.0 mm 0.00 in0.0 mm 0.00 in0.0 mm
12:24 AM 65.2°F18.4°C 93.7°F34.3°C - 8.5 mph WSW13.7 kmh WSW 12.0 mph19.3 kmh 30.29 in1025.7 mb 0.00 in0.0 mm 0.00 in0.0 mm 0.00 in0.0 mm
12:19 AM 65.2°F18.4°C 93.7°F34.3°C - 8.3 mph WSW13.4 kmh WSW 12.0 mph19.3 kmh 30.29 in1025.7 mb 0.00 in0.0 mm 0.00 in0.0 mm 0.00 in0.0 mm
12:14 AM 65.2°F18.4°C 93.7°F34.3°C - 10.6 mph WSW17.1 kmh WSW 15.1 mph24.3 kmh 30.29 in1025.7 mb 0.00 in0.0 mm 0.00 in0.0 mm 0.00 in0.0 mm
12:09 AM 65.2°F18.4°C 93.8°F34.3°C - 9.5 mph WSW15.3 kmh WSW 12.6 mph20.3 kmh 30.29 in1025.7 mb 0.00 in0.0 mm 0.00 in0.0 mm 0.00 in0.0 mm
12:04 AM 65.2°F18.4°C 93.8°F34.3°C - 9.5 mph SW15.3 kmh SW 13.4 mph21.6 kmh 30.29 in1025.7 mb 0.00 in0.0 mm 0.00 in0.0 mm 0.00 in0.0 mm